Terminal Aerodrome Forecast
Issued by NWS

Home | Current Version | Previous Version | Text Only | Print | Product List | Glossary Off
Versions: 1 2 3 4 5 6 7 8 9 10 11 12 13 14 15 16 17 18 19 20 21 22 23 24

851
FTUS43 KGRB 250520
TAFATW
TAF
KATW 250520Z 2506/2606 19004KT P6SM SKC
      TEMPO 2509/2513 5SM BR
     FM251300 19005KT P6SM SCT250
     FM251700 19008KT P6SM FEW050 SCT250
     FM260000 16004KT P6SM FEW050 BKN100=

USA.gov is the U.S. government's official web portal to all federal, state and local government web resources and services.